createdAt,value
2016-12-19T00:01:05.605Z,7.78
2016-12-19T00:02:22.005Z,7.77
2016-12-19T00:03:39.787Z,7.78
2016-12-19T00:05:10.783Z,7.8
2016-12-19T00:06:27.913Z,7.84
2016-12-19T00:07:43.448Z,7.88
2016-12-19T00:09:00.781Z,7.93
2016-12-19T00:10:15.300Z,7.98
2016-12-19T00:11:30.096Z,8.01
2016-12-19T00:12:45.269Z,8.05
2016-12-19T00:14:00.192Z,8.08
2016-12-19T00:15:14.354Z,8.12
2016-12-19T00:16:29.650Z,8.17
2016-12-19T00:17:44.080Z,8.21
2016-12-19T00:19:04.400Z,8.24
2016-12-19T00:20:22.337Z,8.27
2016-12-19T00:21:57.618Z,8.28
2016-12-19T00:23:15.867Z,8.3
2016-12-19T00:24:35.245Z,8.31
2016-12-19T00:25:52.437Z,8.31
2016-12-19T00:27:10.933Z,8.3
2016-12-19T00:28:26.669Z,8.3
2016-12-19T00:29:42.997Z,8.3
2016-12-19T00:30:58.353Z,8.3
2016-12-19T00:32:13.247Z,8.32
2016-12-19T00:33:28.633Z,8.34
2016-12-19T00:34:44.159Z,8.33
2016-12-19T00:36:00.555Z,8.36
2016-12-19T00:37:15.104Z,8.36
2016-12-19T00:38:29.582Z,8.38
2016-12-19T00:39:43.932Z,8.4
2016-12-19T00:41:00.251Z,8.4
2016-12-19T00:42:15.603Z,8.37
2016-12-19T00:43:30.695Z,8.39
2016-12-19T00:44:45.280Z,8.4
2016-12-19T00:46:00.218Z,8.38
2016-12-19T00:47:15.121Z,8.4
2016-12-19T00:48:29.772Z,8.41
2016-12-19T00:49:44.667Z,8.41
2016-12-19T00:51:01.867Z,8.37
2016-12-19T00:52:16.578Z,8.35
2016-12-19T00:53:31.220Z,8.31
2016-12-19T00:54:46.244Z,8.28
2016-12-19T00:56:00.607Z,8.26
2016-12-19T00:57:15.466Z,8.25
2016-12-19T00:58:29.859Z,8.23
2016-12-19T00:59:44.340Z,8.21
2016-12-19T01:00:58.941Z,8.21
2016-12-19T01:02:13.283Z,8.21
2016-12-19T01:03:27.324Z,8.18
2016-12-19T01:04:41.494Z,8.15
2016-12-19T01:05:55.552Z,8.13
2016-12-19T01:07:10.130Z,8.12
2016-12-19T01:08:24.500Z,8.12
2016-12-19T01:09:39.470Z,8.12
2016-12-19T01:10:55.563Z,8.12
2016-12-19T01:12:09.885Z,8.11
2016-12-19T01:13:24.481Z,8.1
2016-12-19T01:17:08.136Z,8.12
2016-12-19T01:18:25.309Z,8.15
2016-12-19T01:19:42.584Z,8.14
2016-12-19T01:20:59.463Z,8.12
2016-12-19T01:22:15.818Z,8.12
2016-12-19T01:23:32.396Z,8.14
2016-12-19T01:24:48.037Z,8.1
2016-12-19T01:26:02.772Z,8.07
2016-12-19T01:27:17.033Z,8.05
2016-12-19T01:28:31.591Z,8.01
2016-12-19T01:29:46.924Z,8
2016-12-19T01:31:02.828Z,7.99
2016-12-19T01:32:33.998Z,7.97
2016-12-19T01:33:50.778Z,7.97
2016-12-19T01:35:07.457Z,7.98
2016-12-19T01:36:23.673Z,8
2016-12-19T01:37:41.387Z,8.03
2016-12-19T01:38:56.148Z,8.05
2016-12-19T01:40:12.538Z,8.07
2016-12-19T01:41:29.018Z,8.09
2016-12-19T01:42:45.835Z,8.09
2016-12-19T01:44:02.447Z,8.08
2016-12-19T01:45:17.288Z,8.04
2016-12-19T01:46:31.421Z,8
2016-12-19T01:47:46.386Z,7.93
2016-12-19T01:49:00.438Z,7.86
2016-12-19T01:50:15.342Z,7.8
2016-12-19T01:51:29.462Z,7.73
2016-12-19T01:52:43.985Z,7.69
2016-12-19T01:53:58.616Z,7.65
2016-12-19T01:55:13.492Z,7.65
2016-12-19T01:56:28.096Z,7.66
2016-12-19T01:57:42.622Z,7.65
2016-12-19T01:58:57.096Z,7.61
2016-12-19T02:00:11.400Z,7.56
2016-12-19T02:01:25.761Z,7.53
2016-12-19T02:02:40.518Z,7.5
2016-12-19T02:03:55.096Z,7.5
2016-12-19T02:05:09.192Z,7.51
2016-12-19T02:06:23.498Z,7.52
2016-12-19T02:07:38.706Z,7.54
2016-12-19T02:08:53.768Z,7.53
2016-12-19T02:10:11.292Z,7.51
2016-12-19T02:11:28.390Z,7.53
2016-12-19T02:12:42.795Z,7.55
2016-12-19T02:13:56.903Z,7.59
2016-12-19T02:15:12.555Z,7.63
2016-12-19T02:16:27.083Z,7.67
2016-12-19T02:17:41.663Z,7.72
2016-12-19T02:18:55.920Z,7.75
2016-12-19T02:20:09.959Z,7.77
2016-12-19T02:21:25.055Z,7.76
2016-12-19T02:22:39.820Z,7.77
2016-12-19T02:24:09.041Z,7.78
2016-12-19T02:25:23.399Z,7.76
2016-12-19T02:26:37.706Z,7.76
2016-12-19T02:27:51.817Z,7.72
2016-12-19T02:29:06.282Z,7.69
2016-12-19T02:30:21.106Z,7.69
2016-12-19T02:31:37.809Z,7.68
2016-12-19T02:32:54.387Z,7.69
2016-12-19T02:34:10.855Z,7.71
2016-12-19T02:35:27.723Z,7.73
2016-12-19T02:36:45.175Z,7.73
2016-12-19T02:38:01.564Z,7.72
2016-12-19T02:39:17.530Z,7.72
2016-12-19T02:40:31.739Z,7.72
2016-12-19T02:41:46.012Z,7.69
2016-12-19T02:43:03.212Z,7.68
2016-12-19T02:44:18.886Z,7.68
2016-12-19T02:45:35.401Z,7.67
2016-12-19T02:46:52.437Z,7.68
2016-12-19T02:48:07.468Z,7.67
2016-12-19T02:49:21.991Z,7.64
2016-12-19T02:50:36.049Z,7.6
2016-12-19T02:51:50.583Z,7.53
2016-12-19T02:53:05.865Z,7.49
2016-12-19T02:54:19.976Z,7.49
2016-12-19T02:55:35.463Z,7.46
2016-12-19T02:56:50.456Z,7.39
2016-12-19T02:58:05.287Z,7.38
2016-12-19T02:59:20.076Z,7.38
2016-12-19T03:00:35.010Z,7.38
2016-12-19T03:01:49.129Z,7.37
2016-12-19T03:03:03.207Z,7.39
2016-12-19T03:04:17.895Z,7.39
2016-12-19T03:05:34.310Z,7.4
2016-12-19T03:06:48.756Z,7.41
2016-12-19T03:10:16.181Z,7.35
2016-12-19T03:11:31.009Z,7.32
2016-12-19T03:12:45.743Z,7.28
2016-12-19T03:13:59.843Z,7.29
2016-12-19T03:15:14.408Z,7.27
2016-12-19T03:16:29.430Z,7.25
2016-12-19T03:17:43.588Z,7.25
2016-12-19T03:18:57.957Z,7.24
2016-12-19T03:20:12.055Z,7.21
2016-12-19T03:21:26.606Z,7.18
2016-12-19T03:22:41.285Z,7.16
2016-12-19T03:23:55.713Z,7.09
2016-12-19T03:25:10.404Z,7.02
2016-12-19T03:26:24.862Z,6.99
2016-12-19T03:27:38.939Z,6.97
2016-12-19T03:28:55.505Z,6.98
2016-12-19T03:30:09.556Z,6.97
2016-12-19T03:31:24.320Z,6.96
2016-12-19T03:32:38.652Z,6.98
2016-12-19T03:33:53.551Z,6.99
2016-12-19T03:35:08.087Z,7.01
2016-12-19T03:36:22.479Z,7.01
2016-12-19T03:37:36.873Z,7.04
2016-12-19T03:38:50.932Z,7.06
2016-12-19T03:40:05.343Z,7.05
2016-12-19T03:41:19.654Z,7.05
2016-12-19T03:42:34.202Z,7.05
2016-12-19T03:43:48.278Z,7.04
2016-12-19T03:45:02.441Z,7.04
2016-12-19T03:46:17.150Z,7.04
2016-12-19T03:47:32.237Z,7.01
2016-12-19T03:48:46.972Z,7.02
2016-12-19T03:50:01.284Z,6.98
2016-12-19T03:51:15.366Z,6.87
2016-12-19T03:52:29.918Z,6.8
2016-12-19T03:53:44.526Z,6.78
2016-12-19T03:54:58.585Z,6.79
2016-12-19T03:56:12.783Z,6.77
2016-12-19T03:57:26.835Z,6.75
2016-12-19T03:58:41.417Z,6.78
2016-12-19T03:59:57.560Z,6.75
2016-12-19T04:01:14.110Z,6.77
2016-12-19T04:02:45.295Z,6.8
2016-12-19T04:04:02.005Z,6.75
2016-12-19T04:05:19.688Z,6.77
2016-12-19T04:06:36.386Z,6.8
2016-12-19T04:07:52.167Z,6.85
2016-12-19T04:09:09.250Z,6.85
2016-12-19T04:10:25.551Z,6.87
2016-12-19T04:11:42.449Z,6.91
2016-12-19T04:12:56.533Z,6.92
2016-12-19T04:14:10.957Z,6.92
2016-12-19T04:15:25.768Z,6.95
2016-12-19T04:16:40.255Z,6.98
2016-12-19T04:17:54.972Z,7.01
2016-12-19T04:19:09.684Z,7.01
2016-12-19T04:20:24.314Z,7.03
2016-12-19T04:21:38.660Z,7.04
2016-12-19T04:22:53.023Z,7.03
2016-12-19T04:24:07.969Z,7
2016-12-19T04:25:22.797Z,6.99
2016-12-19T04:26:37.089Z,6.99
2016-12-19T04:27:51.508Z,7.01
2016-12-19T04:29:07.163Z,6.99
2016-12-19T05:01:49.094Z,6.57
2016-12-19T05:03:03.565Z,6.55
2016-12-19T05:04:19.187Z,6.56
2016-12-19T07:24:55.008Z,6.75
2016-12-19T07:43:58.385Z,6.55
2016-12-19T07:45:12.913Z,6.51
2016-12-19T09:18:20.864Z,7.61
2016-12-19T09:19:35.948Z,7.59
2016-12-19T09:20:51.035Z,7.66
2016-12-19T09:22:06.756Z,7.62
2016-12-19T09:23:21.312Z,7.49
2016-12-19T09:24:36.256Z,7.36
2016-12-19T09:25:51.027Z,7.28
2016-12-19T09:27:06.265Z,7.25
2016-12-19T09:28:21.338Z,7.26
2016-12-19T09:29:36.559Z,7.25
2016-12-19T09:30:51.751Z,7.22
2016-12-19T09:32:08.336Z,7.18
2016-12-19T09:33:25.907Z,7.17
2016-12-19T09:34:42.925Z,7.13
2016-12-19T09:35:59.829Z,7.1
2016-12-19T09:37:16.278Z,7.11
2016-12-19T09:38:34.083Z,7.15
2016-12-19T09:39:50.783Z,7.18
2016-12-19T09:41:05.776Z,7.22
2016-12-19T09:42:20.286Z,7.22
2016-12-19T09:43:34.437Z,7.22
2016-12-19T09:44:49.252Z,7.24
2016-12-19T09:46:04.064Z,7.24
2016-12-19T09:47:20.710Z,7.22
2016-12-19T09:48:37.081Z,7.18
2016-12-19T09:49:53.804Z,7.19
2016-12-19T09:51:12.782Z,7.24
2016-12-19T09:52:28.924Z,7.28
2016-12-19T09:53:45.413Z,7.28
2016-12-19T09:55:00.735Z,7.3
2016-12-19T09:56:15.902Z,7.3
2016-12-19T09:57:31.700Z,7.26
2016-12-19T09:58:47.438Z,7.19
2016-12-19T10:00:02.791Z,7.14
2016-12-19T10:01:17.613Z,7.07
2016-12-19T10:02:32.765Z,7.02
2016-12-19T10:03:47.666Z,6.98
2016-12-19T10:05:02.118Z,6.98
2016-12-19T10:06:17.390Z,7
2016-12-19T10:07:32.163Z,7.04
2016-12-19T10:08:47.428Z,7.09
2016-12-19T10:10:02.621Z,7.15
2016-12-19T10:11:17.147Z,7.2
2016-12-19T10:12:32.414Z,7.25
2016-12-19T10:13:46.985Z,7.29
2016-12-19T10:15:02.166Z,7.31
2016-12-19T10:16:16.769Z,7.34
2016-12-19T10:17:31.238Z,7.35
2016-12-19T10:18:46.205Z,7.36
2016-12-19T10:20:01.474Z,7.31
2016-12-19T10:21:16.418Z,7.26
2016-12-19T10:22:30.757Z,7.25
2016-12-19T10:23:45.734Z,7.22
2016-12-19T10:25:01.098Z,7.22
2016-12-19T10:26:15.734Z,7.19
2016-12-19T10:27:30.494Z,7.14
2016-12-19T10:28:45.158Z,7.14
2016-12-19T10:30:14.513Z,7.16
2016-12-19T10:31:29.066Z,7.2
2016-12-19T10:32:45.938Z,7.23
2016-12-19T10:34:02.306Z,7.28
2016-12-19T10:35:19.609Z,7.34
2016-12-19T10:36:36.338Z,7.34
2016-12-19T10:37:53.812Z,7.35
2016-12-19T10:39:10.218Z,7.38
2016-12-19T10:41:58.347Z,7.46
2016-12-19T10:43:13.404Z,7.46
2016-12-19T10:44:42.585Z,7.44
2016-12-19T10:45:58.694Z,7.39
2016-12-19T10:47:15.910Z,7.38
2016-12-19T10:48:30.607Z,7.37
2016-12-19T10:49:45.360Z,7.39
2016-12-19T10:51:00.986Z,7.41
2016-12-19T10:52:15.388Z,7.48
2016-12-19T10:53:30.992Z,7.58
2016-12-19T10:54:46.396Z,7.62
2016-12-19T10:56:00.943Z,7.64
2016-12-19T10:57:16.353Z,7.65
2016-12-19T10:58:31.048Z,7.6
2016-12-19T10:59:45.199Z,7.52
2016-12-19T11:00:59.815Z,7.47
2016-12-19T11:02:14.232Z,7.43
2016-12-19T11:03:28.532Z,7.42
2016-12-19T11:04:43.334Z,7.4
2016-12-19T11:05:58.500Z,7.38
2016-12-19T11:07:13.956Z,7.3
2016-12-19T11:08:28.475Z,7.22
2016-12-19T11:11:16.189Z,7.11
2016-12-19T11:12:31.478Z,7.05
2016-12-19T11:13:46.790Z,6.99
2016-12-19T11:15:01.340Z,6.93
2016-12-19T11:16:15.810Z,6.92
2016-12-19T11:17:30.776Z,6.96
2016-12-19T11:18:45.487Z,7.05
2016-12-19T11:20:00.532Z,7.12
2016-12-19T11:21:15.058Z,7.12
2016-12-19T11:22:29.181Z,7.17
2016-12-19T11:23:43.647Z,7.28
2016-12-19T11:24:58.345Z,7.37
2016-12-19T11:26:13.434Z,7.51
2016-12-19T11:27:59.417Z,7.65
2016-12-19T11:29:31.413Z,7.69
2016-12-19T11:30:48.973Z,7.71
2016-12-19T11:32:19.991Z,7.65
2016-12-19T11:33:36.496Z,7.6
2016-12-19T11:34:50.976Z,7.53
2016-12-19T11:36:05.697Z,7.53
2016-12-19T11:37:19.901Z,7.53
2016-12-19T11:38:34.110Z,7.57
2016-12-19T11:39:49.109Z,7.6
2016-12-19T11:41:03.697Z,7.62
2016-12-19T11:42:18.941Z,7.64
2016-12-19T11:43:33.728Z,7.64
2016-12-19T11:44:49.096Z,7.54
2016-12-19T11:46:04.295Z,7.48
2016-12-19T11:47:19.047Z,7.43
2016-12-19T11:48:34.335Z,7.4
2016-12-19T11:49:49.005Z,7.41
2016-12-19T11:51:03.372Z,7.46
2016-12-19T11:52:17.448Z,7.47
2016-12-19T11:53:31.988Z,7.53
2016-12-19T11:54:48.218Z,7.57
2016-12-19T11:56:05.184Z,7.53
2016-12-19T11:57:22.287Z,7.48
2016-12-19T11:58:38.443Z,7.42
2016-12-19T11:59:55.927Z,7.44
2016-12-19T12:01:12.513Z,7.46
2016-12-19T12:02:28.780Z,7.43
2016-12-19T12:03:43.932Z,7.38
2016-12-19T12:04:59.146Z,7.33
2016-12-19T12:06:14.997Z,7.26
2016-12-19T12:07:30.084Z,7.19
2016-12-19T12:08:46.190Z,7.14
2016-12-19T12:10:04.077Z,7.11
2016-12-19T12:11:21.438Z,7.11
2016-12-19T12:12:38.835Z,7.05
2016-12-19T12:13:56.220Z,7.06
2016-12-19T12:15:12.681Z,7.04
2016-12-19T12:16:28.773Z,7
2016-12-19T12:17:43.566Z,6.99
2016-12-19T12:18:58.057Z,6.98
2016-12-19T12:20:14.546Z,6.97
2016-12-19T12:21:29.304Z,6.98
2016-12-19T12:22:44.793Z,7.04
2016-12-19T12:23:59.116Z,7.05
2016-12-19T12:25:14.189Z,7.04
2016-12-19T12:26:29.485Z,7.01
2016-12-19T12:27:44.170Z,7.05
2016-12-19T12:29:01.081Z,7.14
2016-12-19T12:30:15.332Z,7.19
2016-12-19T12:31:29.929Z,7.22
2016-12-19T12:32:44.974Z,7.25
2016-12-19T12:34:00.140Z,7.22
2016-12-19T12:35:14.954Z,7.15
2016-12-19T12:36:29.799Z,7.15
2016-12-19T12:37:45.672Z,7.14
2016-12-19T12:39:02.421Z,7.15
2016-12-19T12:40:19.113Z,7.19
2016-12-19T12:41:35.957Z,7.25
2016-12-19T12:42:53.095Z,7.31
2016-12-19T12:44:10.502Z,7.34
2016-12-19T12:45:25.384Z,7.35
2016-12-19T12:46:39.889Z,7.34
2016-12-19T12:47:57.893Z,7.29
2016-12-19T12:49:14.811Z,7.21
2016-12-19T12:50:31.803Z,7.14
2016-12-19T12:51:48.819Z,7.09
2016-12-19T12:53:06.162Z,7.13
2016-12-19T12:54:23.465Z,7.16
2016-12-19T12:55:40.618Z,7.16
2016-12-19T12:56:55.527Z,7.1
2016-12-19T12:58:10.341Z,7.08
2016-12-19T12:59:25.046Z,7.09
2016-12-19T13:00:40.642Z,7.1
2016-12-19T13:01:55.237Z,7.1
2016-12-19T13:03:10.416Z,7.11
2016-12-19T13:04:25.371Z,7.08
2016-12-19T13:05:39.614Z,7.09
2016-12-19T13:06:54.433Z,7.07
2016-12-19T13:08:11.062Z,7.01
2016-12-19T13:09:28.274Z,6.96
2016-12-19T13:10:45.731Z,6.91
2016-12-19T13:12:16.801Z,6.85
2016-12-19T13:13:33.899Z,6.84
2016-12-19T13:14:51.389Z,6.79
2016-12-19T13:16:07.521Z,6.77
2016-12-19T13:17:22.543Z,6.77
2016-12-19T13:18:37.893Z,6.75
2016-12-19T13:19:52.406Z,6.75
2016-12-19T13:21:07.209Z,6.81
2016-12-19T13:22:21.601Z,6.81
2016-12-19T13:23:36.920Z,6.79
2016-12-19T13:24:51.787Z,6.76
2016-12-19T13:26:06.516Z,6.78
2016-12-19T13:27:21.571Z,6.8
2016-12-19T13:28:36.725Z,6.79
2016-12-19T13:29:51.021Z,6.76
2016-12-19T13:31:06.304Z,6.76
2016-12-19T13:32:21.147Z,6.74
2016-12-19T13:33:36.337Z,6.72
2016-12-19T13:34:50.798Z,6.68
2016-12-19T13:36:04.862Z,6.67
2016-12-19T13:37:20.277Z,6.7
2016-12-19T13:38:35.593Z,6.71
2016-12-19T13:39:50.581Z,6.73
2016-12-19T13:41:05.865Z,6.74
2016-12-19T13:42:20.265Z,6.75
2016-12-19T13:43:35.610Z,6.74
2016-12-19T13:44:54.049Z,6.78
2016-12-19T13:46:09.211Z,6.75
2016-12-19T13:47:27.493Z,6.71
2016-12-19T13:48:42.629Z,6.69
2016-12-19T13:49:56.949Z,6.65
2016-12-19T13:51:11.320Z,6.59
2016-12-19T13:52:26.156Z,6.56
2016-12-19T13:53:40.903Z,6.54
2016-12-19T13:54:55.526Z,6.5
2016-12-19T13:56:10.698Z,6.49
2016-12-19T13:57:25.812Z,6.47
2016-12-19T13:58:40.317Z,6.5
2016-12-19T13:59:55.408Z,6.51
2016-12-19T14:01:13.301Z,6.51
2016-12-19T14:02:30.000Z,6.51
2016-12-19T14:03:47.915Z,6.53
2016-12-19T14:05:04.683Z,6.57
2016-12-19T14:06:22.579Z,6.57
2016-12-19T14:07:38.670Z,6.64
2016-12-19T14:08:55.839Z,6.66
2016-12-19T14:10:13.772Z,6.66
2016-12-19T14:11:31.050Z,6.65
2016-12-19T14:12:48.045Z,6.66
2016-12-19T14:14:05.040Z,6.67
2016-12-19T14:15:22.284Z,6.7
2016-12-19T14:16:39.397Z,6.7
2016-12-19T14:17:55.483Z,6.66
2016-12-19T14:19:10.543Z,6.64
2016-12-19T14:20:25.733Z,6.63
2016-12-19T14:21:41.054Z,6.61
2016-12-19T14:22:55.852Z,6.61
2016-12-19T14:24:10.851Z,6.63
2016-12-19T14:26:54.863Z,6.66
2016-12-19T14:28:10.659Z,6.65
2016-12-19T14:29:25.130Z,6.61
2016-12-19T14:30:40.424Z,6.55
2016-12-19T14:31:55.333Z,6.52
2016-12-19T14:33:11.126Z,6.51
2016-12-19T14:34:26.942Z,6.49
2016-12-19T14:35:42.002Z,6.53
2016-12-19T14:37:48.284Z,6.52
2016-12-19T14:39:03.261Z,6.52
2016-12-19T14:40:20.127Z,6.51
2016-12-19T14:41:35.556Z,6.53
2016-12-19T14:42:51.099Z,6.58
2016-12-19T14:44:09.071Z,6.58
2016-12-19T14:45:33.259Z,6.57
2016-12-19T14:46:50.103Z,6.57
2016-12-19T14:48:21.442Z,6.53
2016-12-19T14:49:37.309Z,6.46
2016-12-19T14:50:52.446Z,6.43
2016-12-19T14:52:07.070Z,6.42
2016-12-19T14:53:22.312Z,6.4
2016-12-19T14:54:37.618Z,6.39
2016-12-19T14:55:52.626Z,6.38
2016-12-19T14:57:08.436Z,6.38
2016-12-19T14:58:24.052Z,6.34
2016-12-19T14:59:39.455Z,6.32
2016-12-19T15:00:55.337Z,6.34
2016-12-19T15:02:10.285Z,6.33
2016-12-19T15:03:25.227Z,6.33
2016-12-19T15:04:41.160Z,6.34
2016-12-19T15:05:55.577Z,6.36
2016-12-19T15:07:13.609Z,6.41
2016-12-19T15:08:28.700Z,6.4
2016-12-19T15:09:45.801Z,6.34
2016-12-19T15:11:04.806Z,6.3
2016-12-19T15:12:22.184Z,6.26
2016-12-19T15:13:38.405Z,6.19
2016-12-19T15:14:56.212Z,6.1
2016-12-19T15:16:13.231Z,6.05
2016-12-19T15:17:43.502Z,5.99
2016-12-19T15:18:59.615Z,5.99
2016-12-19T15:20:16.177Z,6.04
2016-12-19T15:21:35.056Z,6.1
2016-12-19T15:22:51.322Z,6.17
2016-12-19T15:24:05.819Z,6.18
2016-12-19T15:25:21.024Z,6.21
2016-12-19T15:26:36.558Z,6.23
2016-12-19T15:27:52.861Z,6.25
2016-12-19T15:29:10.125Z,6.28
2016-12-19T15:30:25.983Z,6.3
2016-12-19T15:31:41.960Z,6.31
2016-12-19T15:32:58.556Z,6.32
2016-12-19T15:34:13.246Z,6.31
2016-12-19T15:35:27.946Z,6.28
2016-12-19T15:36:57.626Z,6.25
2016-12-19T15:38:28.724Z,6.22
2016-12-19T15:39:44.887Z,6.23
2016-12-19T15:41:16.152Z,6.22
2016-12-19T15:42:32.919Z,6.22
2016-12-19T15:43:50.370Z,6.23
2016-12-19T15:45:22.153Z,6.21
2016-12-19T15:48:23.766Z,6.16
2016-12-19T15:49:40.596Z,6.09
2016-12-19T15:50:56.931Z,6.06
2016-12-19T15:52:11.938Z,6.06
2016-12-19T15:53:26.563Z,6.08
2016-12-19T15:54:41.624Z,6.07
2016-12-19T15:55:59.776Z,6.06
2016-12-19T15:57:16.458Z,6.08
2016-12-19T15:58:33.828Z,6.11
2016-12-19T15:59:50.329Z,6.1
2016-12-19T16:01:07.641Z,6.08
2016-12-19T16:02:37.932Z,6.07
2016-12-19T16:03:53.270Z,6.09
2016-12-19T16:05:07.813Z,6.1
2016-12-19T16:06:22.563Z,6.15
2016-12-19T16:07:37.046Z,6.22
2016-12-19T16:08:51.552Z,6.24
2016-12-19T16:10:07.010Z,6.24
2016-12-19T16:11:22.470Z,6.21
2016-12-19T16:12:38.472Z,6.18
2016-12-19T16:13:54.941Z,6.16
2016-12-19T16:15:12.549Z,6.17
2016-12-19T16:16:29.372Z,6.2
2016-12-19T16:17:46.711Z,6.24
2016-12-19T16:19:03.767Z,6.29
2016-12-19T16:20:21.159Z,6.33
2016-12-19T16:21:38.563Z,6.34
2016-12-19T16:22:55.978Z,6.35
2016-12-19T16:24:12.921Z,6.39
2016-12-19T16:25:29.937Z,6.42
2016-12-19T16:26:48.104Z,6.44
2016-12-19T16:28:08.050Z,6.47
2016-12-19T16:29:25.298Z,6.5
2016-12-19T16:30:55.209Z,6.52
2016-12-19T16:32:12.375Z,6.51
2016-12-19T16:33:30.140Z,6.44
2016-12-19T16:34:46.825Z,6.4
2016-12-19T16:36:04.012Z,6.4
2016-12-19T16:37:20.642Z,6.39
2016-12-19T16:38:38.175Z,6.33
2016-12-19T16:39:54.686Z,6.29
2016-12-19T16:41:11.520Z,6.27
2016-12-19T16:42:27.308Z,6.26
2016-12-19T16:43:42.579Z,6.21
2016-12-19T16:44:59.479Z,6.18
2016-12-19T16:46:16.530Z,6.19
2016-12-19T16:47:48.326Z,6.23
2016-12-19T16:49:06.002Z,6.26
2016-12-19T16:50:36.487Z,6.29
2016-12-19T16:52:08.452Z,6.31
2016-12-19T16:53:39.950Z,6.32
2016-12-19T16:54:54.638Z,6.33
2016-12-19T16:56:09.703Z,6.31
2016-12-19T16:57:26.535Z,6.34
2016-12-19T16:58:42.791Z,6.37
2016-12-19T17:00:00.278Z,6.4
2016-12-19T17:01:17.429Z,6.45
2016-12-19T17:02:33.984Z,6.51
2016-12-19T17:03:51.090Z,6.52
2016-12-19T17:05:08.817Z,6.55
2016-12-19T17:06:25.515Z,6.58
2016-12-19T17:07:42.629Z,6.62
2016-12-19T17:08:59.228Z,6.64
2016-12-19T17:10:14.175Z,6.68
2016-12-19T17:11:29.336Z,6.71
2016-12-19T17:12:44.520Z,6.72
2016-12-19T17:13:59.624Z,6.72
2016-12-19T17:15:14.554Z,6.72
2016-12-19T17:16:28.810Z,6.74
2016-12-19T17:17:44.167Z,6.77
2016-12-19T17:18:59.409Z,6.82
2016-12-19T17:20:13.907Z,6.85
2016-12-19T17:21:29.224Z,6.88
2016-12-19T17:22:46.208Z,6.87
2016-12-19T17:24:04.492Z,6.86
2016-12-19T17:25:21.493Z,6.85
2016-12-19T17:26:38.914Z,6.8
2016-12-19T17:29:26.414Z,6.74
2016-12-19T17:30:44.015Z,6.76
2016-12-19T17:31:59.804Z,6.79
2016-12-19T17:33:14.705Z,6.79
2016-12-19T17:34:29.564Z,6.76
2016-12-19T17:35:45.138Z,6.71
2016-12-19T17:37:00.905Z,6.65
2016-12-19T17:38:15.863Z,6.64
2016-12-19T17:39:30.408Z,6.62
2016-12-19T17:40:45.920Z,6.59
2016-12-19T17:42:01.158Z,6.56
2016-12-19T17:43:16.052Z,6.56
2016-12-19T17:44:45.596Z,6.52
2016-12-19T17:46:01.581Z,6.5
2016-12-19T17:47:16.767Z,6.52
2016-12-19T17:48:34.329Z,6.52
2016-12-19T17:50:03.786Z,6.54
2016-12-19T17:51:18.456Z,6.53
2016-12-19T17:52:33.204Z,6.55
2016-12-19T17:53:48.562Z,6.56
2016-12-19T17:55:03.521Z,6.57
2016-12-19T17:56:18.496Z,6.58
2016-12-19T17:57:33.114Z,6.59
2016-12-19T17:58:48.407Z,6.6
2016-12-19T18:00:03.802Z,6.65
2016-12-19T18:01:20.214Z,6.7
2016-12-19T18:02:34.853Z,6.73
2016-12-19T18:03:49.803Z,6.74
2016-12-19T18:05:04.861Z,6.77
2016-12-19T18:06:20.355Z,6.79
2016-12-19T18:09:23.135Z,6.82
2016-12-19T18:10:40.394Z,6.85
2016-12-19T18:12:11.879Z,6.85
2016-12-19T18:13:41.759Z,6.86
2016-12-19T18:14:57.838Z,6.85
2016-12-19T18:16:27.165Z,6.86
2016-12-19T18:17:42.811Z,6.86
2016-12-19T18:18:57.434Z,6.89
2016-12-19T18:20:11.638Z,6.92
2016-12-19T18:21:27.458Z,6.98
2016-12-19T18:22:59.433Z,7.01
2016-12-19T18:24:17.195Z,7.05
2016-12-19T18:25:35.074Z,7.04
2016-12-19T18:26:52.434Z,7.04
2016-12-19T18:28:07.228Z,7.04
2016-12-19T18:29:22.626Z,7.04
2016-12-19T18:30:37.696Z,7.03
2016-12-19T18:31:52.153Z,7.01
2016-12-19T18:33:07.097Z,6.98
2016-12-19T18:34:36.503Z,6.95
2016-12-19T18:38:49.947Z,6.81
2016-12-19T18:40:05.502Z,6.84
2016-12-19T18:41:21.369Z,6.9
2016-12-19T18:42:36.331Z,6.94
2016-12-19T18:43:51.141Z,6.96
2016-12-19T18:45:06.060Z,6.98
2016-12-19T18:46:21.448Z,7
2016-12-19T18:47:36.631Z,7.04
2016-12-19T18:48:50.929Z,7.08
2016-12-19T18:50:35.158Z,7.07
2016-12-19T18:51:49.888Z,7.02
2016-12-19T18:54:35.752Z,6.96
2016-12-19T18:57:20.174Z,6.89
2016-12-19T18:58:34.837Z,6.88
2016-12-19T18:59:49.548Z,6.88
2016-12-19T19:01:06.357Z,6.88
2016-12-19T19:02:22.969Z,6.85
2016-12-19T19:03:39.268Z,6.82
2016-12-19T19:04:56.762Z,6.78
2016-12-19T19:06:14.114Z,6.76
2016-12-19T19:07:31.418Z,6.78
2016-12-19T19:08:48.217Z,6.75
2016-12-19T19:10:04.684Z,6.77
2016-12-19T19:11:22.695Z,6.78
2016-12-19T19:12:39.540Z,6.79
2016-12-19T19:13:57.139Z,6.81
2016-12-19T19:15:11.591Z,6.83
2016-12-19T19:16:26.649Z,6.83
2016-12-19T19:17:41.114Z,6.84
2016-12-19T19:19:04.140Z,6.85
2016-12-19T19:20:21.681Z,6.84
2016-12-19T19:21:38.880Z,6.85
2016-12-19T19:22:55.529Z,6.87
2016-12-19T19:24:13.007Z,6.91
2016-12-19T19:25:44.265Z,6.96
2016-12-19T19:27:00.207Z,7
2016-12-19T19:28:14.977Z,7
2016-12-19T19:29:30.006Z,7.01
2016-12-19T19:30:44.183Z,7.01
2016-12-19T19:31:59.349Z,6.99
2016-12-19T19:33:14.352Z,6.97
2016-12-19T19:34:29.523Z,6.95
2016-12-19T19:35:44.746Z,6.94
2016-12-19T19:36:59.415Z,6.92
2016-12-19T19:38:13.849Z,6.88
2016-12-19T19:39:29.798Z,6.84
2016-12-19T19:40:49.736Z,6.79
2016-12-19T19:42:06.283Z,6.78
2016-12-19T19:43:22.212Z,6.81
2016-12-19T19:44:38.259Z,6.83
2016-12-19T19:45:56.198Z,6.87
2016-12-19T19:47:11.529Z,6.91
2016-12-19T19:48:26.681Z,6.97
2016-12-19T19:49:41.325Z,7.02
2016-12-19T19:50:56.709Z,7.06
2016-12-19T19:52:11.814Z,7.1
2016-12-19T19:53:26.357Z,7.13
2016-12-19T19:54:41.096Z,7.11
2016-12-19T19:55:56.818Z,7.11
2016-12-19T19:57:12.389Z,7.16
2016-12-19T19:58:28.054Z,7.18
2016-12-19T19:59:43.693Z,7.19
2016-12-19T20:01:02.003Z,7.16
2016-12-19T20:02:22.393Z,7.08
2016-12-19T20:03:39.847Z,6.99
2016-12-19T20:04:57.258Z,6.97
2016-12-19T20:06:14.496Z,6.92
2016-12-19T20:07:37.356Z,6.92
2016-12-19T20:08:56.551Z,6.9
2016-12-19T20:10:14.479Z,6.86
2016-12-19T20:11:34.275Z,6.81
2016-12-19T20:12:49.199Z,6.81
2016-12-19T20:14:04.383Z,6.83
2016-12-19T20:15:18.664Z,6.83
2016-12-19T20:16:33.520Z,6.84
2016-12-19T20:17:47.975Z,6.88
2016-12-19T20:19:02.455Z,6.9
2016-12-19T20:20:17.579Z,6.91
2016-12-19T20:21:32.643Z,6.91
2016-12-19T20:22:48.812Z,6.92
2016-12-19T20:24:05.119Z,6.9
2016-12-19T20:25:21.545Z,6.92
2016-12-19T20:26:38.833Z,6.89
2016-12-19T20:27:55.607Z,6.89
2016-12-19T20:29:11.526Z,6.91
2016-12-19T20:30:30.302Z,6.91
2016-12-19T20:31:46.466Z,6.85
2016-12-19T20:33:01.459Z,6.83
2016-12-19T20:34:15.956Z,6.82
2016-12-19T20:35:34.897Z,6.79
2016-12-19T20:36:52.119Z,6.77
2016-12-19T20:38:09.617Z,6.75
2016-12-19T20:39:27.130Z,6.74
2016-12-19T20:40:43.394Z,6.73
2016-12-19T20:41:57.919Z,6.73
2016-12-19T20:43:11.998Z,6.73
2016-12-19T20:44:26.855Z,6.71
2016-12-19T20:45:41.107Z,6.72
2016-12-19T20:46:55.784Z,6.75
2016-12-19T20:48:13.394Z,6.78
2016-12-19T20:49:30.727Z,6.75
2016-12-19T20:50:47.309Z,6.79
2016-12-19T20:52:03.793Z,6.83
2016-12-19T20:53:20.820Z,6.88
2016-12-19T20:54:50.926Z,6.94
2016-12-19T20:56:08.953Z,6.97
2016-12-19T20:57:24.804Z,6.96
2016-12-19T20:58:41.891Z,6.9
2016-12-19T20:59:57.918Z,6.87
2016-12-19T21:01:14.869Z,6.81
2016-12-19T21:02:31.763Z,6.79
2016-12-19T21:03:46.765Z,6.79
2016-12-19T21:05:01.096Z,6.81
2016-12-19T21:06:15.912Z,6.84
2016-12-19T21:07:30.884Z,6.86
2016-12-19T21:08:46.481Z,6.87
2016-12-19T21:10:01.492Z,6.89
2016-12-19T21:11:18.497Z,6.93
2016-12-19T21:12:35.350Z,6.96
2016-12-19T21:13:52.738Z,6.99
2016-12-19T21:15:09.693Z,6.99
2016-12-19T21:16:26.477Z,7
2016-12-19T21:17:43.800Z,7
2016-12-19T21:19:00.747Z,6.98
2016-12-19T21:20:18.065Z,7
2016-12-19T21:21:35.540Z,7.01
2016-12-19T21:22:52.397Z,6.99
2016-12-19T21:24:23.933Z,6.98
2016-12-19T21:25:40.633Z,6.97
2016-12-19T21:26:57.675Z,6.93
2016-12-19T21:28:14.013Z,6.92
2016-12-19T21:29:29.455Z,6.89
2016-12-19T21:30:43.577Z,6.89
2016-12-19T21:31:57.690Z,6.9
2016-12-19T21:33:12.790Z,6.91
2016-12-19T21:34:28.526Z,6.88
2016-12-19T21:35:43.148Z,6.82
2016-12-19T21:36:57.662Z,6.77
2016-12-19T21:38:11.807Z,6.75
2016-12-19T21:39:27.250Z,6.73
2016-12-19T21:40:44.041Z,6.73
2016-12-19T21:42:01.033Z,6.76
2016-12-19T21:43:19.598Z,6.78
2016-12-19T21:44:40.286Z,6.8
2016-12-19T21:46:00.812Z,6.81
2016-12-19T21:47:16.826Z,6.78
2016-12-19T21:48:33.494Z,6.78
2016-12-19T21:49:52.487Z,6.78
2016-12-19T21:51:08.991Z,6.8
2016-12-19T21:52:25.348Z,6.78
2016-12-19T21:53:41.935Z,6.8
2016-12-19T21:54:58.965Z,6.82
2016-12-19T21:56:16.176Z,6.82
2016-12-19T21:57:33.385Z,6.81
2016-12-19T21:58:50.441Z,6.77
2016-12-19T22:00:05.276Z,6.73
2016-12-19T22:01:22.315Z,6.72
2016-12-19T22:02:39.136Z,6.68